Time;durP1;ratioP1;P1;durP2;ratioP2;P2;SDS_P1;SDS_P2;PMS_P1;PMS_P2;Temp;Humidity;BMP_temperature;BMP_pressure;BME280_temperature;BME280_humidity;BME280_pressure;Samples;Min_cycle;Max_cycle;Signal;HPM_P1;HPM_P2
2023/01/28 00:00:46;;;;;;;8.70;5.00;;;0.30;99.90;;;-0.79;100.00;97813.53;5031924;28;20024;-37
2023/01/28 00:03:13;;;;;;;9.05;5.07;;;0.30;99.90;;;-0.79;100.00;97808.34;5029664;28;20042;-37
2023/01/28 00:05:38;;;;;;;8.43;4.85;;;0.30;99.90;;;-0.91;100.00;97783.16;5029767;28;20032;-37
2023/01/28 00:08:04;;;;;;;8.13;5.70;;;0.30;99.90;;;-0.79;100.00;97808.34;5029549;28;20035;-37
2023/01/28 00:10:30;;;;;;;10.23;4.93;;;0.30;99.90;;;-0.81;100.00;97800.59;5025972;28;20477;-37
2023/01/28 00:12:55;;;;;;;8.23;5.20;;;0.30;99.90;;;-0.80;100.00;97804.91;5030002;28;20033;-37
2023/01/28 00:15:21;;;;;;;9.70;5.35;;;0.30;99.90;;;-0.82;100.00;97800.56;5029292;28;20086;-38
2023/01/28 00:17:47;;;;;;;9.07;5.05;;;0.20;99.90;;;-0.78;100.00;97803.19;5029773;28;20037;-37
2023/01/28 00:20:13;;;;;;;7.53;4.68;;;0.30;99.90;;;-0.77;100.00;97801.50;5028595;28;20731;-37
2023/01/28 00:22:38;;;;;;;8.45;5.10;;;0.30;99.90;;;-0.79;100.00;97810.94;5032408;28;20022;-37
2023/01/28 00:25:04;;;;;;;7.22;4.55;;;0.30;99.90;;;-0.76;100.00;97808.41;5026400;28;20033;-37
2023/01/28 00:27:30;;;;;;;6.22;4.65;;;0.30;99.90;;;-0.78;100.00;97812.69;5028065;28;20112;-37
2023/01/28 00:29:56;;;;;;;8.52;5.10;;;0.30;99.90;;;-0.78;100.00;97807.50;5028584;28;20472;-37
2023/01/28 00:32:21;;;;;;;7.38;4.28;;;0.30;99.90;;;-0.79;100.00;97803.16;5032408;28;20040;-38
2023/01/28 00:34:49;;;;;;;7.85;4.65;;;0.30;99.90;;;-0.75;100.00;97807.56;5030338;28;20532;-37
2023/01/28 00:37:14;;;;;;;11.63;4.97;;;0.30;99.90;;;-0.74;100.00;97801.53;5027869;28;20129;-37
2023/01/28 00:39:40;;;;;;;8.10;4.60;;;0.30;99.90;;;-0.80;100.00;97786.78;5027109;28;20025;-37
2023/01/28 00:42:06;;;;;;;6.88;4.55;;;0.30;99.90;;;-0.77;100.00;97793.72;5025725;28;20072;-37
2023/01/28 00:44:31;;;;;;;8.27;4.70;;;0.30;99.90;;;-0.81;100.00;97781.56;5026453;28;21495;-37
2023/01/28 00:46:57;;;;;;;8.80;5.25;;;0.30;99.90;;;-0.87;100.00;97772.00;5020772;28;20297;-37
2023/01/28 00:49:23;;;;;;;8.15;5.25;;;0.30;99.90;;;-0.81;100.00;97785.03;5020933;28;20048;-37
2023/01/28 00:51:48;;;;;;;7.30;4.63;;;0.30;99.90;;;-0.72;100.00;97784.28;5027436;28;20373;-37
2023/01/28 00:54:14;;;;;;;6.18;4.10;;;0.30;99.90;;;-0.70;100.00;97784.31;5025297;28;20037;-37
2023/01/28 00:56:40;;;;;;;7.70;4.93;;;0.30;99.90;;;-0.81;100.00;97782.44;5025563;28;20032;-37
2023/01/28 00:59:05;;;;;;;6.80;4.65;;;0.30;99.90;;;-0.78;100.00;97797.16;5030820;28;20025;-37
2023/01/28 01:01:31;;;;;;;8.15;4.70;;;0.30;99.90;;;-0.75;100.00;97798.91;5030360;28;20442;-37
2023/01/28 01:04:01;;;;;;;7.88;4.65;;;0.30;99.90;;;-0.77;100.00;97797.19;5027197;28;20412;-37
2023/01/28 01:06:29;;;;;;;7.20;4.57;;;0.30;99.90;;;-0.67;100.00;97792.97;5027212;28;20029;-37
2023/01/28 01:08:55;;;;;;;6.97;4.60;;;0.30;99.90;;;-0.73;100.00;97785.16;5027095;28;20078;-37
2023/01/28 01:11:21;;;;;;;7.57;4.65;;;0.30;99.90;;;-0.78;100.00;97784.19;5019968;28;20049;-37
2023/01/28 01:13:56;;;;;;;7.32;4.63;;;0.30;99.90;;;-0.75;100.00;97783.38;5022538;28;20071;-38
2023/01/28 01:16:26;;;;;;;7.78;4.28;;;0.30;99.90;;;-0.72;100.00;97783.41;5028247;28;20466;-37
2023/01/28 01:18:54;;;;;;;6.70;4.43;;;0.30;99.90;;;-0.69;100.00;97797.28;5026754;28;20278;-37
2023/01/28 01:21:24;;;;;;;6.75;4.00;;;0.30;99.90;;;-0.74;100.00;97796.34;5025189;28;20057;-37
2023/01/28 01:23:51;;;;;;;8.00;4.80;;;0.30;99.90;;;-0.73;100.00;97797.22;5024747;28;20036;-37
2023/01/28 01:26:17;;;;;;;7.90;4.50;;;0.30;99.90;;;-0.78;100.00;97798.00;5023977;28;20124;-37
2023/01/28 01:28:43;;;;;;;6.28;4.28;;;0.30;99.90;;;-0.74;100.00;97800.66;5026633;28;20420;-37
2023/01/28 01:31:16;;;;;;;7.15;4.70;;;0.30;99.90;;;-0.73;100.00;97803.28;5026090;28;20117;-37
2023/01/28 01:33:44;;;;;;;7.63;4.25;;;0.30;99.90;;;-0.72;100.00;97805.00;5023652;28;20072;-38
2023/01/28 01:36:13;;;;;;;8.07;4.75;;;0.30;99.90;;;-0.70;100.00;97802.44;5024094;28;20055;-38
2023/01/28 01:38:40;;;;;;;6.97;4.53;;;0.40;99.90;;;-0.71;100.00;97798.13;5030842;28;20974;-37
2023/01/28 01:41:07;;;;;;;6.18;4.10;;;0.30;99.90;;;-0.74;100.00;97801.53;5031924;28;20602;-38
2023/01/28 01:43:55;;;;;;;9.15;4.40;;;0.40;99.90;;;-0.68;100.00;97811.09;5032383;28;20041;-37
2023/01/28 01:46:59;;;;;;;6.75;4.35;;;0.40;99.90;;;-0.69;100.00;97811.97;5031567;28;20191;-37
2023/01/28 01:49:27;;;;;;;7.25;4.07;;;0.40;99.90;;;-0.60;100.00;97810.34;5013593;28;20267;-37
2023/01/28 01:52:02;;;;;;;5.25;3.70;;;0.40;99.90;;;-0.66;100.00;97812.88;5016972;28;20194;-37
2023/01/28 01:54:30;;;;;;;7.45;4.50;;;0.40;99.90;;;-0.66;100.00;97804.25;5013635;28;20195;-37
2023/01/28 01:56:58;;;;;;;7.22;4.30;;;0.40;99.90;;;-0.64;100.00;97802.53;5027196;28;20029;-37
2023/01/28 01:59:29;;;;;;;7.38;4.65;;;0.40;99.90;;;-0.66;100.00;97801.66;5031314;28;20807;-37
2023/01/28 02:01:57;;;;;;;10.80;5.00;;;0.40;99.90;;;-0.69;100.00;97809.38;5018036;28;20560;-37
2023/01/28 02:04:30;;;;;;;7.43;4.50;;;0.40;99.90;;;-0.70;100.00;97811.09;5022112;28;20076;-37
2023/01/28 02:06:59;;;;;;;6.60;4.15;;;0.40;99.90;;;-0.66;100.00;97805.09;5014773;28;20044;-37
2023/01/28 02:09:28;;;;;;;9.98;4.57;;;0.40;99.90;;;-0.68;100.00;97803.31;5023088;28;20095;-37
2023/01/28 02:12:02;;;;;;;5.70;3.83;;;0.40;99.90;;;-0.63;100.00;97805.16;5019441;28;20534;-37
2023/01/28 02:14:34;;;;;;;6.50;3.80;;;0.40;99.90;;;-0.59;100.00;97801.75;5022694;28;20095;-38
2023/01/28 02:17:01;;;;;;;6.32;4.00;;;0.40;99.90;;;-0.60;100.00;97804.31;5018744;28;20120;-37
2023/01/28 02:19:53;;;;;;;7.10;4.07;;;0.50;99.90;;;-0.65;100.00;97803.38;5019670;28;20026;-37
2023/01/28 02:23:02;;;;;;;6.18;3.95;;;0.50;99.90;;;-0.64;100.00;97811.16;5023338;28;20767;-37
2023/01/28 02:26:43;;;;;;;6.28;3.72;;;0.40;99.90;;;-0.62;100.00;97804.28;5015569;28;20485;-37
2023/01/28 02:29:27;;;;;;;6.57;3.80;;;0.40;99.90;;;-0.58;100.00;97812.97;4998417;28;20717;-37
2023/01/28 02:32:09;;;;;;;5.47;3.72;;;0.50;99.90;;;-0.53;100.00;97813.91;4996718;28;20052;-38
2023/01/28 02:34:42;;;;;;;6.35;3.72;;;0.50;99.90;;;-0.49;100.00;97814.81;5026180;28;20048;-37
2023/01/28 02:37:21;;;;;;;6.05;3.40;;;0.50;99.90;;;-0.50;100.00;97810.47;5034873;28;21607;-37
2023/01/28 02:40:11;;;;;;;6.50;4.10;;;0.50;99.90;;;-0.53;100.00;97813.91;5026340;28;20032;-38
2023/01/28 02:42:39;;;;;;;7.10;4.18;;;0.50;99.90;;;-0.49;100.00;97805.31;5029847;28;20026;-37
2023/01/28 02:48:19;;;;;;;5.97;3.65;;;0.50;99.90;;;-0.52;100.00;97817.34;5027237;28;20158;-36
2023/01/28 02:51:01;;;;;;;7.30;3.95;;;0.50;99.90;;;-0.58;100.00;97819.00;5029675;28;20127;-36
2023/01/28 02:53:40;;;;;;;5.88;4.10;;;0.50;99.90;;;-0.60;100.00;97822.44;5070089;23;20048;-43
2023/01/28 02:56:20;;;;;;;6.03;4.10;;;0.50;99.90;;;-0.61;100.00;97824.16;5071095;28;20394;-43
2023/01/28 02:59:29;;;;;;;6.32;4.07;;;0.40;99.90;;;-0.75;100.00;97799.78;5073610;28;20032;-44
2023/01/28 03:02:39;;;;;;;7.03;3.97;;;0.50;99.90;;;-0.66;100.00;97830.16;5071932;28;20027;-43
2023/01/28 03:05:34;;;;;;;6.50;3.92;;;0.40;99.90;;;-0.66;100.00;97827.56;5058220;28;20325;-45
2023/01/28 03:09:21;;;;;;;5.53;3.65;;;0.40;99.90;;;-0.63;100.00;97833.66;5050515;28;20036;-43
2023/01/28 03:39:11;;;;;;;5.95;4.22;;;0.50;99.90;;;-0.49;100.00;97832.97;5058834;28;20067;-47
2023/01/28 03:41:37;;;;;;;6.80;4.80;;;0.50;99.90;;;-0.57;100.00;97825.09;5056526;28;20103;-43
2023/01/28 03:46:47;;;;;;;8.15;5.40;;;0.50;99.90;;;-0.62;100.00;97832.78;5042010;28;20048;-46
2023/01/28 03:49:15;;;;;;;8.48;5.32;;;0.40;99.90;;;-0.64;100.00;97839.66;5036714;28;20115;-43
2023/01/28 03:51:41;;;;;;;10.68;4.93;;;0.40;99.90;;;-0.69;100.00;97841.31;5046847;28;20033;-47
2023/01/28 03:54:07;;;;;;;8.30;5.13;;;0.40;99.90;;;-0.71;100.00;97836.97;5049264;28;20039;-47
2023/01/28 03:56:36;;;;;;;6.93;4.95;;;0.30;99.90;;;-0.70;100.00;97843.88;5053864;28;20028;-45
2023/01/28 03:59:03;;;;;;;11.30;5.72;;;0.30;99.90;;;-0.74;100.00;97842.09;5050181;28;20021;-45
2023/01/28 04:01:29;;;;;;;9.57;5.70;;;0.40;99.90;;;-0.71;100.00;97836.97;5041515;28;20032;-47
2023/01/28 04:03:54;;;;;;;8.20;5.78;;;0.30;99.90;;;-0.74;100.00;97842.09;5039440;28;20045;-44
2023/01/28 04:06:20;;;;;;;10.63;6.28;;;0.40;99.90;;;-0.74;100.00;97837.78;5046561;28;20086;-46
2023/01/28 04:08:51;;;;;;;11.70;6.60;;;0.30;99.90;;;-0.74;100.00;97834.31;5039601;28;20040;-47
2023/01/28 04:11:20;;;;;;;10.37;5.90;;;0.30;99.90;;;-0.71;100.00;97839.56;5041182;28;20084;-47
2023/01/28 04:13:47;;;;;;;7.65;5.45;;;0.30;99.90;;;-0.71;100.00;97836.97;5046154;28;20499;-44
2023/01/28 04:16:16;;;;;;;8.98;5.65;;;0.40;99.90;;;-0.68;100.00;97837.00;5052730;28;20032;-43
2023/01/28 04:18:45;;;;;;;10.68;6.45;;;0.40;99.90;;;-0.70;100.00;97844.78;5055133;28;20619;-46
2023/01/28 04:21:11;;;;;;;9.98;6.63;;;0.40;99.90;;;-0.68;100.00;97840.47;5049054;28;20017;-45
2023/01/28 04:23:37;;;;;;;10.35;6.00;;;0.40;99.90;;;-0.65;100.00;97848.28;5051458;28;20040;-44
2023/01/28 04:26:03;;;;;;;9.80;6.55;;;0.40;99.90;;;-0.69;100.00;97851.69;5052438;28;20567;-45
2023/01/28 04:28:29;;;;;;;10.32;6.68;;;0.40;99.90;;;-0.62;100.00;97861.28;5050458;28;20455;-43
2023/01/28 04:30:55;;;;;;;10.38;7.03;;;0.40;99.90;;;-0.60;100.00;97846.63;5053184;28;20034;-43
2023/01/28 04:33:22;;;;;;;8.93;6.45;;;0.40;99.90;;;-0.61;100.00;97857.84;5056108;28;20037;-42
2023/01/28 04:35:48;;;;;;;10.95;7.03;;;0.50;99.90;;;-0.54;100.00;97865.69;5050955;28;20029;-44
2023/01/28 04:38:13;;;;;;;10.82;7.00;;;0.50;99.90;;;-0.55;100.00;97863.97;5060940;28;20050;-42
2023/01/28 04:40:39;;;;;;;10.70;6.40;;;0.50;99.90;;;-0.60;100.00;97867.34;5054782;28;20161;-42
2023/01/28 04:43:05;;;;;;;10.40;6.13;;;0.50;99.90;;;-0.59;100.00;97870.84;5057516;28;20028;-43
2023/01/28 04:45:30;;;;;;;13.70;6.93;;;0.50;99.90;;;-0.62;100.00;97865.59;5051863;28;20455;-42
2023/01/28 04:47:56;;;;;;;13.13;7.35;;;0.50;99.90;;;-0.59;100.00;97873.44;5058471;28;20020;-43
2023/01/28 04:50:22;;;;;;;12.60;6.82;;;0.50;99.90;;;-0.59;100.00;97873.44;5051448;28;20388;-43
2023/01/28 04:52:47;;;;;;;10.07;6.95;;;0.50;99.90;;;-0.57;100.00;97876.91;5056911;28;20062;-43
2023/01/28 04:55:13;;;;;;;9.60;6.40;;;0.50;99.90;;;-0.52;100.00;97879.53;5053525;28;20037;-44
2023/01/28 04:57:39;;;;;;;10.27;6.80;;;0.50;99.90;;;-0.52;100.00;97882.13;5051441;28;20395;-46
2023/01/28 05:00:05;;;;;;;12.38;7.95;;;0.50;99.90;;;-0.48;100.00;97881.34;5051820;28;20036;-42
2023/01/28 05:02:31;;;;;;;10.00;6.97;;;0.50;99.90;;;-0.44;100.00;97876.22;5056807;28;20351;-44
2023/01/28 05:04:57;;;;;;;14.95;6.88;;;0.60;99.90;;;-0.43;100.00;97883.16;5045456;28;20075;-44
2023/01/28 05:07:22;;;;;;;10.25;6.78;;;0.60;99.90;;;-0.45;100.00;97876.19;5045818;28;20039;-44
2023/01/28 05:09:48;;;;;;;11.60;7.40;;;0.60;99.90;;;-0.45;100.00;97890.03;5056753;28;20132;-45
2023/01/28 05:12:14;;;;;;;10.32;6.30;;;0.60;99.90;;;-0.44;100.00;97888.31;5045962;28;20480;-45
2023/01/28 05:14:39;;;;;;;10.82;6.97;;;0.60;99.90;;;-0.43;100.00;97892.63;5052469;28;20097;-47
2023/01/28 05:17:05;;;;;;;10.85;6.93;;;0.60;99.90;;;-0.41;100.00;97891.81;5044762;28;20271;-44
2023/01/28 05:19:30;;;;;;;11.65;7.28;;;0.60;99.90;;;-0.45;100.00;97884.84;5061278;28;20029;-45
2023/01/28 05:21:56;;;;;;;10.48;6.72;;;0.60;99.90;;;-0.44;100.00;97881.41;5056405;28;20384;-46
2023/01/28 05:24:22;;;;;;;11.20;6.95;;;0.60;99.90;;;-0.43;100.00;97888.34;5049816;28;20388;-46
2023/01/28 05:26:48;;;;;;;10.93;6.75;;;0.60;99.90;;;-0.42;100.00;97892.66;5053322;28;20064;-47
2023/01/28 05:29:13;;;;;;;12.07;6.45;;;0.60;99.90;;;-0.46;100.00;97888.28;5057635;28;20676;-45
2023/01/28 05:31:39;;;;;;;11.85;7.10;;;0.60;99.90;;;-0.39;100.00;97889.25;5046755;28;20096;-44
2023/01/28 05:34:05;;;;;;;11.07;7.78;;;0.60;99.90;;;-0.43;100.00;97879.66;5058927;28;20718;-45
2023/01/28 05:36:30;;;;;;;11.18;7.10;;;0.60;99.90;;;-0.47;100.00;97886.53;5056420;28;20032;-46
2023/01/28 05:38:56;;;;;;;11.93;7.10;;;0.60;99.90;;;-0.54;100.00;97882.09;5058987;28;20039;-47
2023/01/28 05:41:22;;;;;;;10.25;6.63;;;0.50;99.90;;;-0.53;100.00;97888.19;5061425;28;20463;-44
2023/01/28 05:43:47;;;;;;;10.15;6.70;;;0.50;99.90;;;-0.56;100.00;97890.72;5049100;28;20091;-45
2023/01/28 05:46:13;;;;;;;11.57;6.40;;;0.50;99.90;;;-0.54;100.00;97889.03;5063883;28;20028;-45
2023/01/28 05:48:39;;;;;;;10.63;6.63;;;0.50;99.90;;;-0.55;100.00;97887.28;5053684;28;20031;-43
2023/01/28 05:51:04;;;;;;;11.02;6.70;;;0.40;99.90;;;-0.58;100.00;97886.38;5049758;28;20377;-47
2023/01/28 05:53:31;;;;;;;10.85;6.07;;;0.40;99.90;;;-0.59;100.00;97882.06;5046760;28;20081;-44
2023/01/28 05:55:57;;;;;;;8.48;6.05;;;0.50;99.90;;;-0.64;100.00;97886.28;5042590;28;20477;-44
2023/01/28 05:58:22;;;;;;;11.20;6.93;;;0.40;99.90;;;-0.67;100.00;97888.84;5050762;28;20052;-44
2023/01/28 06:00:48;;;;;;;12.98;7.22;;;0.40;99.90;;;-0.69;100.00;97892.25;5050257;28;20278;-43
2023/01/28 06:03:14;;;;;;;10.00;6.57;;;0.40;99.90;;;-0.68;100.00;97891.38;5046825;28;20051;-45
2023/01/28 06:05:39;;;;;;;11.48;6.75;;;0.40;99.90;;;-0.67;100.00;97901.78;5040215;28;20119;-43
2023/01/28 06:08:05;;;;;;;12.57;6.78;;;0.30;99.90;;;-0.67;100.00;97893.16;5046766;28;20036;-43
2023/01/28 06:10:31;;;;;;;10.32;6.20;;;0.40;99.90;;;-0.67;100.00;97899.19;5045859;28;20036;-42
2023/01/28 06:12:57;;;;;;;12.48;6.85;;;0.40;99.90;;;-0.65;100.00;97900.09;5042133;28;20947;-45
2023/01/28 06:15:23;;;;;;;11.07;6.85;;;0.40;99.90;;;-0.67;100.00;97903.50;5044013;28;20033;-48
2023/01/28 06:17:48;;;;;;;10.27;6.32;;;0.40;99.90;;;-0.73;100.00;97904.28;5049965;28;20114;-46
2023/01/28 06:20:15;;;;;;;12.30;6.72;;;0.40;99.90;;;-0.72;100.00;97906.00;5047943;28;20032;-42
2023/01/28 06:22:42;;;;;;;10.35;6.45;;;0.30;99.90;;;-0.66;100.00;97920.81;5045186;28;20032;-43
2023/01/28 06:25:08;;;;;;;11.05;7.20;;;0.40;99.90;;;-0.66;100.00;97920.81;5047809;28;20123;-44
2023/01/28 06:27:34;;;;;;;10.85;6.53;;;0.40;99.90;;;-0.64;100.00;97921.69;5048578;28;20035;-44
2023/01/28 06:30:00;;;;;;;10.40;6.85;;;0.40;99.90;;;-0.60;100.00;97934.72;5055982;28;20379;-45
2023/01/28 06:32:26;;;;;;;10.68;6.72;;;0.40;99.90;;;-0.56;100.00;97935.63;5049806;28;20275;-46
2023/01/28 06:34:52;;;;;;;11.10;7.22;;;0.40;99.90;;;-0.56;100.00;97942.53;5056214;28;20055;-47
2023/01/28 06:37:18;;;;;;;9.90;6.70;;;0.40;99.90;;;-0.56;100.00;97945.13;5053282;28;20029;-45
2023/01/28 06:39:43;;;;;;;9.23;6.63;;;0.50;99.90;;;-0.55;100.00;97949.47;5062016;28;20029;-44
2023/01/28 06:42:09;;;;;;;11.65;6.88;;;0.50;99.90;;;-0.47;100.00;97950.44;5055639;28;20474;-43
2023/01/28 06:44:35;;;;;;;11.80;6.95;;;0.50;99.90;;;-0.50;100.00;97947.81;5057581;28;20254;-45
2023/01/28 06:47:01;;;;;;;11.52;6.72;;;0.50;99.90;;;-0.51;100.00;97951.25;5057027;28;20040;-44
2023/01/28 06:49:27;;;;;;;9.90;6.53;;;0.50;99.90;;;-0.50;100.00;97959.06;5061430;28;20500;-43
2023/01/28 06:51:53;;;;;;;11.02;7.07;;;0.50;99.90;;;-0.53;100.00;97952.97;5061776;28;20096;-44
2023/01/28 06:54:18;;;;;;;11.25;7.05;;;0.50;99.90;;;-0.52;100.00;97953.00;5053955;28;20484;-44
2023/01/28 06:56:44;;;;;;;11.15;6.95;;;0.50;99.90;;;-0.51;100.00;97959.03;5060905;28;20040;-44
2023/01/28 06:59:09;;;;;;;10.60;6.40;;;0.50;99.90;;;-0.49;100.00;97958.19;5059349;28;20150;-43
2023/01/28 07:01:35;;;;;;;10.45;6.50;;;0.50;99.90;;;-0.47;100.00;97958.22;5059367;28;20028;-43
2023/01/28 07:04:01;;;;;;;9.88;6.40;;;0.50;99.90;;;-0.45;100.00;97959.13;5064695;28;20404;-45
2023/01/28 07:06:27;;;;;;;12.02;7.38;;;0.60;99.90;;;-0.42;100.00;97959.16;5050191;28;20064;-46
2023/01/28 07:08:52;;;;;;;10.43;6.75;;;0.60;99.90;;;-0.43;100.00;97965.19;5047139;28;21998;-46
2023/01/28 07:11:18;;;;;;;10.95;6.75;;;0.60;99.90;;;-0.43;100.00;97962.59;5044499;28;20043;-43
2023/01/28 07:13:44;;;;;;;10.70;6.85;;;0.60;99.90;;;-0.44;100.00;97963.47;5063113;28;20711;-43
2023/01/28 07:16:10;;;;;;;11.68;7.30;;;0.60;99.90;;;-0.45;100.00;97965.19;5055147;28;20028;-44
2023/01/28 07:18:35;;;;;;;11.95;7.03;;;0.60;99.90;;;-0.45;100.00;97964.28;5051588;28;20055;-44
2023/01/28 07:21:01;;;;;;;14.57;7.55;;;0.60;99.90;;;-0.42;100.00;97975.59;5053867;28;20197;-43
2023/01/28 07:23:27;;;;;;;11.65;7.57;;;0.60;99.90;;;-0.41;100.00;97985.13;5042634;28;20079;-42
2023/01/28 07:25:52;;;;;;;11.27;7.22;;;0.60;99.90;;;-0.42;100.00;97987.69;5049614;28;20036;-43
2023/01/28 07:28:20;;;;;;;10.57;7.40;;;0.70;99.90;;;-0.44;100.00;97976.41;5057755;28;20040;-47
2023/01/28 07:30:52;;;;;;;10.57;7.05;;;0.70;99.90;;;-0.37;100.00;97978.25;5045579;28;20055;-43
2023/01/28 07:33:17;;;;;;;11.98;7.20;;;0.70;99.90;;;-0.34;100.00;97975.72;5058584;28;20111;-43
2023/01/28 07:35:45;;;;;;;12.68;7.75;;;0.70;99.90;;;-0.31;100.00;97975.75;5055462;28;20028;-47
2023/01/28 07:38:11;;;;;;;13.35;8.05;;;0.70;99.90;;;-0.28;100.00;97978.41;5056599;28;21561;-42
2023/01/28 07:40:37;;;;;;;11.82;6.80;;;0.70;99.90;;;-0.22;100.00;97981.06;5059606;28;20035;-44
2023/01/28 07:43:03;;;;;;;12.57;7.32;;;0.80;99.90;;;-0.16;100.00;97982.91;5061964;28;20040;-44
2023/01/28 07:45:30;;;;;;;12.77;7.32;;;0.80;99.90;;;-0.13;100.00;97987.25;5052841;28;20437;-44
2023/01/28 07:48:03;;;;;;;11.48;7.55;;;0.90;99.90;;;-0.10;100.00;97987.31;5059999;28;20028;-41
2023/01/28 07:50:32;;;;;;;13.88;7.82;;;0.90;99.90;;;-0.08;100.00;97986.47;5057323;28;20094;-43
2023/01/28 07:53:01;;;;;;;13.50;7.68;;;0.90;99.90;;;-0.04;100.00;97993.44;5052960;28;20373;-42
2023/01/28 07:55:26;;;;;;;12.65;8.02;;;1.00;99.90;;;-0.03;100.00;97987.41;5049388;28;20430;-42
2023/01/28 07:57:55;;;;;;;12.65;8.23;;;1.00;99.90;;;-0.03;100.00;97994.31;5050246;28;20041;-43
2023/01/28 08:00:23;;;;;;;11.90;8.10;;;1.00;99.90;;;-0.05;100.00;98004.66;5053013;28;20028;-42
2023/01/28 08:02:53;;;;;;;16.23;8.45;;;1.00;99.90;;;-0.04;100.00;97998.63;5058312;28;20460;-41
2023/01/28 08:05:20;;;;;;;14.32;8.15;;;1.00;99.90;;;-0.02;100.00;97993.47;5037256;28;20028;-42
2023/01/28 08:07:47;;;;;;;16.80;8.23;;;1.10;99.90;;;0.02;100.00;98008.25;5053473;28;20119;-42
2023/01/28 08:10:15;;;;;;;12.55;7.22;;;1.10;99.90;;;0.11;100.00;98003.19;5040428;28;20071;-42
2023/01/28 08:12:53;;;;;;;11.63;7.38;;;1.10;99.90;;;0.06;100.00;98003.97;5041304;28;20051;-41
2023/01/28 08:15:19;;;;;;;12.88;7.40;;;1.10;99.90;;;0.12;100.00;98006.63;5044272;28;20685;-47
2023/01/28 08:17:45;;;;;;;11.57;7.68;;;1.10;99.90;;;0.21;100.00;98013.69;5051447;28;20203;-43
2023/01/28 08:20:11;;;;;;;18.25;8.02;;;1.20;99.90;;;0.31;100.00;98013.81;5056495;28;20028;-45
2023/01/28 08:22:36;;;;;;;14.15;8.10;;;1.30;99.90;;;0.31;100.00;98015.56;5052692;28;20025;-46
2023/01/28 08:25:02;;;;;;;13.90;8.50;;;1.30;99.90;;;0.26;100.00;98017.22;5052279;28;20050;-47
2023/01/28 08:27:28;;;;;;;14.07;7.85;;;1.30;99.90;;;0.26;100.00;98017.22;5050837;28;20036;-48
2023/01/28 08:29:54;;;;;;;13.43;7.72;;;1.30;99.90;;;0.32;100.00;98018.19;5052706;28;20060;-48
2023/01/28 08:32:20;;;;;;;13.90;8.05;;;1.30;99.90;;;0.31;100.00;98020.75;5040900;28;20133;-47
2023/01/28 08:34:46;;;;;;;13.60;8.77;;;1.30;99.90;;;0.30;100.00;98013.81;5048856;28;20036;-47
2023/01/28 08:37:11;;;;;;;14.05;8.20;;;1.30;99.90;;;0.40;100.00;98020.88;5051234;28;20626;-43
2023/01/28 08:39:37;;;;;;;12.85;8.55;;;1.40;99.90;;;0.38;100.00;98018.25;5046695;28;20037;-46
2023/01/28 08:42:05;;;;;;;13.20;7.93;;;1.40;99.90;;;0.49;100.00;98017.53;5056103;28;20053;-46
2023/01/28 08:44:31;;;;;;;10.75;7.18;;;1.40;99.90;;;0.57;100.00;98019.38;5042897;28;20036;-45
2023/01/28 08:46:57;;;;;;;16.90;8.73;;;1.60;99.90;;;0.62;100.00;98011.63;5054202;28;20040;-45
2023/01/28 08:49:23;;;;;;;15.15;8.85;;;1.60;99.90;;;0.66;100.00;98018.59;5046389;28;20028;-49
2023/01/28 08:51:48;;;;;;;16.20;8.95;;;1.70;99.90;;;0.78;100.00;98015.28;5050316;28;20063;-47
2023/01/28 08:54:14;;;;;;;14.63;8.27;;;1.70;99.90;;;0.87;100.00;98014.50;5047587;23;20503;-38
2023/01/28 08:56:43;;;;;;;13.27;8.57;;;1.90;99.90;;;1.04;100.00;98022.47;5024311;28;20108;-37
2023/01/28 08:59:12;;;;;;;13.38;8.40;;;2.00;99.90;;;1.12;100.00;98023.44;5029686;28;20039;-37
2023/01/28 09:01:38;;;;;;;13.70;8.25;;;2.10;99.90;;;1.21;100.00;98028.72;5024999;28;20052;-37
2023/01/28 09:04:04;;;;;;;12.40;8.70;;;2.20;99.90;;;1.24;100.00;98031.38;5012163;28;20128;-37
2023/01/28 09:06:29;;;;;;;15.38;8.68;;;2.20;99.90;;;1.32;100.00;98031.44;5006977;28;20040;-37
2023/01/28 09:08:59;;;;;;;15.68;8.95;;;2.30;99.90;;;1.42;100.00;98028.06;5011963;28;20057;-37
2023/01/28 09:11:27;;;;;;;13.52;8.40;;;2.40;99.90;;;1.47;100.00;98021.19;5007796;28;20716;-37
2023/01/28 09:13:52;;;;;;;16.17;8.85;;;2.50;99.90;;;1.49;100.00;98026.38;5001031;28;20561;-37
2023/01/28 09:16:19;;;;;;;13.70;8.93;;;2.50;99.90;;;1.55;100.00;98023.84;5007229;28;20031;-37
2023/01/28 09:18:44;;;;;;;14.13;9.07;;;2.60;99.90;;;1.57;100.00;98027.34;5007924;28;20044;-37
2023/01/28 09:21:10;;;;;;;13.43;9.25;;;2.60;99.90;;;1.65;100.00;98041.28;5010564;28;20228;-36
2023/01/28 09:23:37;;;;;;;15.57;9.30;;;2.60;99.90;;;1.57;100.00;98037.75;5010596;28;20060;-36
2023/01/28 09:26:04;;;;;;;12.32;8.68;;;2.60;99.90;;;1.63;100.00;98048.19;5010149;28;20045;-36
2023/01/28 09:28:31;;;;;;;14.98;9.32;;;2.60;99.90;;;1.57;100.00;98049.88;5010835;28;20026;-36
2023/01/28 09:31:02;;;;;;;14.95;9.40;;;2.60;99.90;;;1.55;100.00;98043.78;5007872;28;20037;-36
2023/01/28 09:33:28;;;;;;;17.08;9.80;;;2.60;99.90;;;1.22;100.00;98040.88;5008347;28;20053;-37
2023/01/28 09:35:54;;;;;;;17.15;9.90;;;2.50;99.90;;;1.48;100.00;98064.50;4999488;28;20037;-37
2023/01/28 09:38:19;;;;;;;15.13;9.30;;;2.50;99.90;;;1.39;100.00;98050.56;5011707;28;20033;-36
2023/01/28 09:40:45;;;;;;;16.00;9.25;;;2.50;99.90;;;1.34;100.00;98060.91;5008729;28;20025;-37
2023/01/28 09:43:43;;;;;;;15.32;8.98;;;2.40;99.90;;;1.40;100.00;98063.59;4991361;28;20040;-37
2023/01/28 09:46:14;;;;;;;17.58;9.90;;;2.50;99.90;;;1.46;100.00;98062.78;5006682;28;20040;-39
2023/01/28 09:48:46;;;;;;;15.48;9.50;;;2.50;99.90;;;1.55;100.00;98069.78;4989663;28;20363;-36
2023/01/28 09:51:34;;;;;;;14.13;9.25;;;2.60;99.90;;;1.66;100.00;98073.34;5008063;28;20067;-37
2023/01/28 09:54:11;;;;;;;14.93;9.10;;;2.70;99.90;;;1.74;100.00;98071.69;5007070;28;20038;-37
2023/01/28 09:56:45;;;;;;;14.40;9.45;;;2.70;99.90;;;1.77;100.00;98071.72;4995161;28;20193;-37
2023/01/28 09:59:35;;;;;;;14.55;9.48;;;2.80;99.90;;;1.74;100.00;98066.47;4994689;28;20029;-38
2023/01/28 10:02:00;;;;;;;16.15;8.85;;;2.80;99.90;;;1.89;100.00;98076.16;4992464;28;20241;-38
2023/01/28 10:04:41;;;;;;;16.30;9.63;;;2.90;99.90;;;1.87;100.00;98078.75;5018102;28;20029;-38
2023/01/28 10:07:51;;;;;;;14.60;8.65;;;2.90;99.90;;;1.89;100.00;98073.56;5015919;28;21198;-38
2023/01/28 10:10:24;;;;;;;16.27;9.00;;;2.90;99.90;;;1.60;100.00;98045.56;5014484;28;20124;-38
2023/01/28 10:13:38;;;;;;;17.38;9.80;;;2.80;99.90;;;1.63;100.00;98048.19;5012058;28;20183;-37
2023/01/28 10:16:28;;;;;;;14.23;9.05;;;2.80;99.90;;;1.82;100.00;98069.16;5001285;28;20698;-38
2023/01/28 10:19:01;;;;;;;14.63;9.18;;;2.80;99.90;;;1.81;100.00;98067.41;5006182;28;20029;-38
2023/01/28 10:21:39;;;;;;;16.00;9.70;;;2.80;99.90;;;1.78;100.00;98063.06;4988408;28;20072;-37
2023/01/28 10:24:17;;;;;;;16.00;9.30;;;2.80;99.90;;;1.63;100.00;98068.97;5012008;28;20051;-37
2023/01/28 10:26:43;;;;;;;15.93;9.57;;;2.70;99.90;;;1.68;100.00;98062.09;4994714;28;20030;-37
2023/01/28 10:29:19;;;;;;;16.13;9.60;;;2.70;99.90;;;1.66;100.00;98048.22;5001808;28;20385;-38
2023/01/28 10:31:53;;;;;;;16.13;10.30;;;2.70;99.90;;;1.68;100.00;98056.91;5011194;28;20937;-38
2023/01/28 10:34:21;;;;;;;16.33;9.68;;;2.70;99.90;;;1.69;100.00;98058.66;5014852;28;20120;-37
2023/01/28 10:36:48;;;;;;;17.58;10.23;;;2.70;99.90;;;1.70;100.00;98057.78;5008355;28;20026;-38
2023/01/28 10:39:21;;;;;;;21.50;10.68;;;2.70;99.90;;;1.62;100.00;98050.78;4993762;28;20061;-38
2023/01/28 10:41:47;;;;;;;16.45;10.13;;;2.70;99.90;;;1.62;100.00;98049.06;4990932;28;20052;-38
2023/01/28 10:44:29;;;;;;;15.20;9.45;;;2.70;99.90;;;1.70;100.00;98049.13;5004735;28;20056;-39
2023/01/28 10:46:58;;;;;;;16.70;10.20;;;2.60;99.90;;;1.60;100.00;98050.78;5004307;28;20029;-39
2023/01/28 10:49:28;;;;;;;18.40;10.02;;;2.60;99.90;;;1.69;100.00;98048.25;4992014;28;20068;-39
2023/01/28 10:51:54;;;;;;;16.70;10.00;;;2.60;99.90;;;1.71;100.00;98046.53;4994350;28;20083;-40
2023/01/28 10:54:28;;;;;;;16.50;9.63;;;2.70;99.90;;;1.86;100.00;98042.31;5013726;28;20610;-40
2023/01/28 10:56:59;;;;;;;15.77;9.75;;;2.70;99.90;;;1.90;100.00;98050.16;5013122;28;20516;-39
2023/01/28 10:59:35;;;;;;;17.50;10.15;;;2.80;99.90;;;1.90;100.00;98055.38;5012017;28;20516;-39
2023/01/28 11:02:05;;;;;;;20.77;11.02;;;2.90;99.90;;;1.80;100.00;98045.75;4996493;28;20290;-39